Time;durP1;ratioP1;P1;durP2;ratioP2;P2;SDS_P1;SDS_P2;PMS_P1;PMS_P2;Temp;Humidity;BMP_temperature;BMP_pressure;BME280_temperature;BME280_humidity;BME280_pressure;Samples;Min_cycle;Max_cycle;Signal;HPM_P1;HPM_P2
2024/01/02 00:01:13;;;;;;;13.77;4.33;;;5.20;99.90;;;;;;5091740;28;20757;-78
2024/01/02 00:03:39;;;;;;;13.30;4.47;;;5.30;99.90;;;;;;5092108;28;20970;-78
2024/01/02 00:06:04;;;;;;;14.52;4.25;;;5.30;99.90;;;;;;5093878;28;20396;-78
2024/01/02 00:08:30;;;;;;;15.87;4.63;;;5.30;99.90;;;;;;5090729;28;20398;-78
2024/01/02 00:10:56;;;;;;;16.17;4.53;;;5.40;99.90;;;;;;5092139;28;20413;-78
2024/01/02 00:13:21;;;;;;;16.52;4.22;;;5.30;99.90;;;;;;5092482;28;20940;-78
2024/01/02 00:15:47;;;;;;;16.03;4.47;;;5.40;99.90;;;;;;5094417;28;20401;-79
2024/01/02 00:18:12;;;;;;;14.23;4.38;;;5.40;99.90;;;;;;5092002;28;20485;-78
2024/01/02 00:20:38;;;;;;;14.60;4.43;;;5.30;99.90;;;;;;5090983;28;20425;-78
2024/01/02 00:23:04;;;;;;;16.83;4.57;;;5.40;99.90;;;;;;5089931;28;20511;-78
2024/01/02 00:25:29;;;;;;;16.63;4.50;;;5.40;99.90;;;;;;5092926;28;20782;-78
2024/01/02 00:27:55;;;;;;;17.37;4.73;;;5.40;99.90;;;;;;5091223;28;20394;-78
2024/01/02 00:30:20;;;;;;;17.30;4.50;;;5.40;99.90;;;;;;5092708;28;20801;-78
2024/01/02 00:32:47;;;;;;;16.07;4.23;;;5.40;99.90;;;;;;5089454;28;20497;-78
2024/01/02 00:35:13;;;;;;;16.13;4.03;;;5.40;99.90;;;;;;5089274;28;20407;-78
2024/01/02 00:37:39;;;;;;;16.35;4.53;;;5.40;99.90;;;;;;5090891;28;20455;-78
2024/01/02 00:40:05;;;;;;;14.32;4.18;;;5.40;99.90;;;;;;5091973;28;21115;-78
2024/01/02 00:42:31;;;;;;;15.45;3.72;;;5.40;99.90;;;;;;5090568;28;20427;-78
2024/01/02 00:44:59;;;;;;;14.40;4.20;;;5.40;99.90;;;;;;5089433;28;20409;-78
2024/01/02 00:47:24;;;;;;;15.73;3.80;;;5.40;99.90;;;;;;5089876;28;20892;-78
2024/01/02 00:49:50;;;;;;;12.90;3.40;;;5.40;99.90;;;;;;5089038;28;20442;-78
2024/01/02 00:52:15;;;;;;;13.55;3.90;;;5.40;99.90;;;;;;5088371;28;20394;-78
2024/01/02 00:54:41;;;;;;;14.90;3.93;;;5.40;99.90;;;;;;5094546;28;20405;-78
2024/01/02 00:57:07;;;;;;;16.13;3.63;;;5.40;99.90;;;;;;5090870;28;20406;-78
2024/01/02 00:59:33;;;;;;;15.00;3.75;;;5.50;99.90;;;;;;5093746;28;20519;-78
2024/01/02 01:01:59;;;;;;;13.82;3.35;;;5.50;99.90;;;;;;5090925;28;20493;-78
2024/01/02 01:04:24;;;;;;;13.40;3.33;;;5.50;99.90;;;;;;5092207;28;20890;-79
2024/01/02 01:06:51;;;;;;;12.55;3.35;;;5.50;99.90;;;;;;5090805;28;20406;-78
2024/01/02 01:09:18;;;;;;;13.20;3.13;;;5.50;99.90;;;;;;5081194;28;20443;-78
2024/01/02 01:11:43;;;;;;;13.23;3.63;;;5.50;99.90;;;;;;5089321;28;20406;-78
2024/01/02 01:14:09;;;;;;;14.13;3.13;;;5.50;99.90;;;;;;5091554;28;20404;-78
2024/01/02 01:16:35;;;;;;;12.77;2.95;;;5.50;99.90;;;;;;5071714;28;20416;-78
2024/01/02 01:19:00;;;;;;;13.03;2.83;;;5.50;99.90;;;;;;5089790;28;20431;-78
2024/01/02 01:21:26;;;;;;;13.45;2.80;;;5.50;99.90;;;;;;5089846;28;20401;-78
2024/01/02 01:23:51;;;;;;;12.95;3.10;;;5.60;99.90;;;;;;5089462;28;20435;-78
2024/01/02 01:26:17;;;;;;;13.63;3.10;;;5.60;99.90;;;;;;5088160;28;20398;-78
2024/01/02 01:28:43;;;;;;;10.55;2.58;;;5.60;99.90;;;;;;5071425;28;20410;-78
2024/01/02 01:31:08;;;;;;;14.07;3.20;;;5.60;99.90;;;;;;5087686;28;20410;-78
2024/01/02 01:33:34;;;;;;;8.65;1.92;;;5.60;99.90;;;;;;5089054;28;20451;-78
2024/01/02 01:35:59;;;;;;;8.40;2.45;;;5.70;99.90;;;;;;5087470;28;20406;-78
2024/01/02 01:38:25;;;;;;;11.87;2.67;;;5.60;99.90;;;;;;5087365;28;20424;-78
2024/01/02 01:40:51;;;;;;;10.95;2.20;;;5.70;99.90;;;;;;5088909;28;20438;-78
2024/01/02 01:43:16;;;;;;;10.33;2.50;;;5.70;99.90;;;;;;5070833;28;20788;-78
2024/01/02 01:45:42;;;;;;;11.52;2.80;;;5.70;99.90;;;;;;5088457;28;20430;-78
2024/01/02 01:48:09;;;;;;;12.27;2.60;;;5.70;99.90;;;;;;5088170;28;20459;-78
2024/01/02 01:50:36;;;;;;;10.18;2.50;;;5.70;99.90;;;;;;5087160;28;20410;-78
2024/01/02 01:53:03;;;;;;;11.65;2.28;;;5.70;99.90;;;;;;5088938;28;20400;-78
2024/01/02 01:55:29;;;;;;;9.85;2.33;;;5.70;99.90;;;;;;5090044;28;20463;-78
2024/01/02 01:57:55;;;;;;;9.23;2.03;;;5.80;99.90;;;;;;5075000;28;20428;-78
2024/01/02 02:00:20;;;;;;;13.13;2.45;;;5.70;99.90;;;;;;5090159;28;20919;-78
2024/01/02 02:02:47;;;;;;;11.10;2.33;;;5.70;99.90;;;;;;5091963;28;20783;-78
2024/01/02 02:05:12;;;;;;;8.77;2.13;;;5.70;99.90;;;;;;5089518;28;20409;-78
2024/01/02 02:07:41;;;;;;;10.30;1.80;;;5.70;99.90;;;;;;5089088;28;20899;-78
2024/01/02 02:10:10;;;;;;;10.13;2.28;;;5.70;99.90;;;;;;5080661;28;20429;-78
2024/01/02 02:12:36;;;;;;;12.57;2.10;;;5.70;99.90;;;;;;5069452;28;20406;-79
2024/01/02 02:15:03;;;;;;;10.90;2.20;;;5.70;99.90;;;;;;5089325;28;20408;-79
2024/01/02 02:17:30;;;;;;;11.68;2.53;;;5.70;99.90;;;;;;5072118;28;20434;-79
2024/01/02 02:19:56;;;;;;;11.47;2.50;;;5.70;99.90;;;;;;5094749;28;20453;-79
2024/01/02 02:22:49;;;;;;;13.43;2.20;;;5.80;99.90;;;;;;5089045;28;20409;-79
2024/01/02 02:25:15;;;;;;;12.02;2.25;;;5.70;99.90;;;;;;5079537;28;20969;-79
2024/01/02 02:27:40;;;;;;;12.32;2.60;;;5.70;99.90;;;;;;5092076;28;20488;-79
2024/01/02 02:30:06;;;;;;;13.65;2.60;;;5.70;99.90;;;;;;5088263;28;20564;-79
2024/01/02 02:32:32;;;;;;;15.10;2.58;;;5.80;99.90;;;;;;5089737;28;20412;-79
2024/01/02 02:34:57;;;;;;;12.97;3.13;;;5.80;99.90;;;;;;5090205;28;20397;-79
2024/01/02 02:37:23;;;;;;;12.87;3.30;;;5.80;99.90;;;;;;5088049;28;20406;-79
2024/01/02 02:39:48;;;;;;;11.05;3.20;;;5.80;99.90;;;;;;5090044;28;20453;-79
2024/01/02 02:42:14;;;;;;;14.97;3.53;;;5.80;99.90;;;;;;5087519;28;20489;-79
2024/01/02 02:44:42;;;;;;;16.05;3.38;;;5.80;99.90;;;;;;5092760;28;20762;-78
2024/01/02 02:47:09;;;;;;;14.90;3.53;;;5.90;99.90;;;;;;5089895;28;20401;-79
2024/01/02 02:49:34;;;;;;;15.40;3.25;;;5.90;99.90;;;;;;5089260;28;20418;-79
2024/01/02 02:52:00;;;;;;;14.85;3.70;;;5.90;99.90;;;;;;5071986;28;20418;-79
2024/01/02 02:54:25;;;;;;;14.90;3.93;;;5.90;99.90;;;;;;5089369;28;20847;-79
2024/01/02 02:56:51;;;;;;;16.50;4.20;;;5.90;99.90;;;;;;5086735;28;20410;-79
2024/01/02 02:59:16;;;;;;;16.17;4.37;;;6.00;99.90;;;;;;5088378;28;20454;-79
2024/01/02 03:01:42;;;;;;;12.87;4.27;;;5.90;99.90;;;;;;5088985;28;20402;-79
2024/01/02 03:04:08;;;;;;;15.32;4.32;;;6.00;99.90;;;;;;5086469;28;20410;-79
2024/01/02 03:06:33;;;;;;;17.97;4.97;;;6.00;99.90;;;;;;5069812;28;20413;-79
2024/01/02 03:08:59;;;;;;;14.20;4.65;;;6.00;99.90;;;;;;5091470;28;20405;-79
2024/01/02 03:11:24;;;;;;;16.53;4.50;;;6.00;99.90;;;;;;5090831;28;20934;-79
2024/01/02 03:13:50;;;;;;;20.90;5.40;;;6.00;99.90;;;;;;5090891;28;20402;-79
2024/01/02 03:16:16;;;;;;;16.65;5.45;;;6.10;99.90;;;;;;5089211;28;20409;-79
2024/01/02 03:18:41;;;;;;;14.70;5.27;;;6.00;99.90;;;;;;5091615;28;20401;-79
2024/01/02 03:21:13;;;;;;;15.98;5.75;;;6.10;99.90;;;;;;5090130;28;20426;-79
2024/01/02 03:23:39;;;;;;;16.33;6.13;;;6.10;99.90;;;;;;5091273;28;20413;-79
2024/01/02 03:26:05;;;;;;;18.40;6.13;;;6.10;99.90;;;;;;5091468;28;20422;-79
2024/01/02 03:28:31;;;;;;;16.95;5.57;;;6.10;99.90;;;;;;5090489;28;20412;-79
2024/01/02 03:30:57;;;;;;;20.80;5.90;;;6.10;99.90;;;;;;5092469;28;20926;-79
2024/01/02 03:33:23;;;;;;;19.67;5.70;;;6.10;99.90;;;;;;5091594;28;21365;-79
2024/01/02 03:35:48;;;;;;;17.40;6.10;;;6.10;99.90;;;;;;5092667;28;20409;-79
2024/01/02 03:38:15;;;;;;;17.43;5.60;;;6.10;99.90;;;;;;5090817;28;21195;-79
2024/01/02 03:40:41;;;;;;;15.07;5.50;;;6.10;99.90;;;;;;5092994;28;20784;-80
2024/01/02 03:43:07;;;;;;;16.73;5.57;;;6.10;99.90;;;;;;5091258;28;20414;-79
2024/01/02 03:45:32;;;;;;;19.83;5.78;;;6.10;99.90;;;;;;5091534;28;20791;-79
2024/01/02 03:48:00;;;;;;;17.52;5.32;;;6.10;99.90;;;;;;5090306;28;20438;-79
2024/01/02 03:50:25;;;;;;;15.77;4.97;;;6.10;99.90;;;;;;5092593;28;20764;-79
2024/01/02 03:52:51;;;;;;;12.83;5.10;;;6.10;99.90;;;;;;5091511;28;20463;-79
2024/01/02 03:55:17;;;;;;;14.40;5.00;;;6.10;99.90;;;;;;5092136;28;20398;-80
2024/01/02 03:57:43;;;;;;;11.27;4.67;;;6.10;99.90;;;;;;5090536;28;20413;-79
2024/01/02 04:00:09;;;;;;;11.77;4.47;;;6.10;99.90;;;;;;5092410;28;20509;-79
2024/01/02 04:02:34;;;;;;;14.47;4.97;;;6.10;99.90;;;;;;5091509;28;20543;-79
2024/01/02 04:05:01;;;;;;;14.70;4.60;;;6.20;99.90;;;;;;5091464;28;20948;-79
2024/01/02 04:07:27;;;;;;;15.82;4.95;;;6.20;99.90;;;;;;5090896;28;20435;-80
2024/01/02 04:09:53;;;;;;;12.73;4.90;;;6.20;99.90;;;;;;5089969;28;20990;-79
2024/01/02 04:12:18;;;;;;;15.57;5.10;;;6.20;99.90;;;;;;5091007;28;20390;-80
2024/01/02 04:14:44;;;;;;;11.63;4.40;;;6.20;99.90;;;;;;5091798;28;20402;-79
2024/01/02 04:17:09;;;;;;;14.40;4.78;;;6.20;99.90;;;;;;5089326;28;20923;-79
2024/01/02 04:19:35;;;;;;;14.17;4.67;;;6.20;99.90;;;;;;5089256;28;20509;-79
2024/01/02 04:22:01;;;;;;;13.38;4.45;;;6.20;99.90;;;;;;5091752;28;20887;-79
2024/01/02 04:24:26;;;;;;;14.90;4.83;;;6.20;99.90;;;;;;5091677;28;20402;-79
2024/01/02 04:26:52;;;;;;;12.93;4.10;;;6.20;99.90;;;;;;5091836;28;20963;-79
2024/01/02 04:29:18;;;;;;;11.32;4.20;;;6.20;99.90;;;;;;5094222;28;20402;-79
2024/01/02 04:31:44;;;;;;;11.73;4.03;;;6.20;99.90;;;;;;5089530;28;20481;-80
2024/01/02 04:34:10;;;;;;;12.07;4.40;;;6.20;99.90;;;;;;5092445;28;20401;-79
2024/01/02 04:36:35;;;;;;;10.50;4.63;;;6.20;99.90;;;;;;5092427;28;20406;-79
2024/01/02 04:39:01;;;;;;;12.98;4.72;;;6.20;99.90;;;;;;5093313;28;20481;-79
2024/01/02 04:41:27;;;;;;;14.80;4.28;;;6.20;99.90;;;;;;5092454;28;20406;-80
2024/01/02 04:43:52;;;;;;;13.97;4.33;;;6.20;99.90;;;;;;5092567;28;20892;-79
2024/01/02 04:46:18;;;;;;;10.23;3.63;;;6.20;99.90;;;;;;5091157;28;20417;-79
2024/01/02 04:48:43;;;;;;;11.50;4.00;;;6.30;99.90;;;;;;5093145;28;20433;-80
2024/01/02 04:51:09;;;;;;;13.50;4.17;;;6.20;99.90;;;;;;5090916;28;20836;-79
2024/01/02 04:53:34;;;;;;;10.25;3.28;;;6.20;99.90;;;;;;5091944;28;20406;-79
2024/01/02 04:56:00;;;;;;;12.23;3.47;;;6.20;99.90;;;;;;5088872;28;20479;-80
2024/01/02 04:58:26;;;;;;;10.02;3.22;;;6.30;99.90;;;;;;5091408;28;20488;-79
2024/01/02 05:00:51;;;;;;;11.30;3.83;;;6.20;99.90;;;;;;5089903;28;20822;-79
2024/01/02 05:03:17;;;;;;;10.93;3.25;;;6.30;99.90;;;;;;5088634;28;20497;-79
2024/01/02 05:05:43;;;;;;;8.57;2.72;;;6.20;99.90;;;;;;5089673;28;20402;-80
2024/01/02 05:08:08;;;;;;;8.90;3.40;;;6.20;99.90;;;;;;5090790;28;20749;-79
2024/01/02 05:10:34;;;;;;;13.88;3.30;;;6.20;99.90;;;;;;5087976;28;20600;-79
2024/01/02 05:12:59;;;;;;;8.30;2.97;;;6.20;99.90;;;;;;5090672;28;20446;-79
2024/01/02 05:15:25;;;;;;;10.33;3.37;;;6.20;99.90;;;;;;5070210;28;20471;-79
2024/01/02 05:17:50;;;;;;;10.88;2.90;;;6.20;99.90;;;;;;5089386;28;20512;-79
2024/01/02 05:20:16;;;;;;;8.20;3.03;;;6.20;99.90;;;;;;5087298;28;20885;-79
2024/01/02 05:22:42;;;;;;;8.65;3.10;;;6.20;99.90;;;;;;5090764;28;20995;-79
2024/01/02 05:25:09;;;;;;;9.48;2.72;;;6.20;99.90;;;;;;5090038;28;20437;-79
2024/01/02 05:27:35;;;;;;;9.75;2.85;;;6.20;99.90;;;;;;5088014;28;20425;-79
2024/01/02 05:30:00;;;;;;;9.75;2.40;;;6.20;99.90;;;;;;5088705;28;20406;-79
2024/01/02 05:32:26;;;;;;;8.55;2.65;;;6.20;99.90;;;;;;5089724;28;20776;-79
2024/01/02 05:34:52;;;;;;;9.00;2.57;;;6.20;99.90;;;;;;5088694;28;20437;-78
2024/01/02 05:37:18;;;;;;;9.80;2.45;;;6.20;99.90;;;;;;5089768;28;20413;-79
2024/01/02 05:39:43;;;;;;;8.35;2.25;;;6.20;99.90;;;;;;5088643;28;20533;-79
2024/01/02 05:42:09;;;;;;;9.60;1.90;;;6.20;99.90;;;;;;5086998;28;20974;-79
2024/01/02 05:44:35;;;;;;;8.40;2.47;;;6.20;99.90;;;;;;5088088;28;20398;-79
2024/01/02 05:47:00;;;;;;;6.30;1.77;;;6.20;99.90;;;;;;5086936;28;20413;-79
2024/01/02 05:49:26;;;;;;;7.70;1.90;;;6.20;99.90;;;;;;5086877;28;20432;-79
2024/01/02 05:51:51;;;;;;;8.48;1.95;;;6.20;99.90;;;;;;5091594;28;20400;-79
2024/01/02 05:54:17;;;;;;;6.97;1.60;;;6.20;99.90;;;;;;5107954;28;20408;-79
2024/01/02 05:56:43;;;;;;;8.47;2.23;;;6.20;99.90;;;;;;5102654;28;20402;-79
2024/01/02 05:59:09;;;;;;;6.95;2.28;;;6.20;99.90;;;;;;5087739;28;20440;-79
2024/01/02 06:01:35;;;;;;;7.70;2.22;;;6.20;99.90;;;;;;5088074;28;20445;-79
2024/01/02 06:04:01;;;;;;;6.82;2.00;;;6.20;99.90;;;;;;5088036;28;20447;-80
2024/01/02 06:06:26;;;;;;;7.40;2.28;;;6.20;99.90;;;;;;5089983;28;20401;-79
2024/01/02 06:08:52;;;;;;;7.70;1.92;;;6.10;99.90;;;;;;5105464;28;20443;-79
2024/01/02 06:11:17;;;;;;;7.73;2.13;;;6.20;99.90;;;;;;5105567;28;20431;-79
2024/01/02 06:13:43;;;;;;;9.07;2.25;;;6.20;99.90;;;;;;5105126;28;20491;-79
2024/01/02 06:16:12;;;;;;;6.85;1.88;;;6.20;99.90;;;;;;5104926;28;20763;-80
2024/01/02 06:18:38;;;;;;;7.63;1.92;;;6.20;99.90;;;;;;5106157;28;20397;-79
2024/01/02 06:21:04;;;;;;;8.55;2.08;;;6.20;99.90;;;;;;5088656;28;20436;-79
2024/01/02 06:23:33;;;;;;;4.82;1.75;;;6.20;99.90;;;;;;5085033;28;20430;-80
2024/01/02 06:26:00;;;;;;;7.55;1.92;;;6.20;99.90;;;;;;5084262;28;20426;-80
2024/01/02 06:28:25;;;;;;;5.22;1.77;;;6.20;99.90;;;;;;5086992;28;20457;-80
2024/01/02 06:30:51;;;;;;;5.17;1.60;;;6.20;99.90;;;;;;5087062;28;20406;-80
2024/01/02 06:33:17;;;;;;;6.33;1.50;;;6.30;99.90;;;;;;5087705;28;20406;-80
2024/01/02 06:35:42;;;;;;;6.03;2.00;;;6.20;99.90;;;;;;5086817;28;20413;-80
2024/01/02 06:38:11;;;;;;;5.88;1.60;;;6.20;99.90;;;;;;5097102;28;20433;-79
2024/01/02 06:40:37;;;;;;;5.70;1.50;;;6.20;99.90;;;;;;5105120;28;20630;-80
2024/01/02 06:43:04;;;;;;;4.43;1.50;;;6.20;99.90;;;;;;5108403;28;20404;-80
2024/01/02 06:45:31;;;;;;;4.13;1.40;;;6.20;99.90;;;;;;5108854;28;20411;-80
2024/01/02 06:47:57;;;;;;;3.22;1.70;;;6.20;99.90;;;;;;5109498;28;20404;-80
2024/01/02 06:50:23;;;;;;;3.72;1.13;;;6.20;99.90;;;;;;5110544;28;20411;-79
2024/01/02 06:52:49;;;;;;;7.03;1.40;;;6.20;99.90;;;;;;5110724;28;20400;-79
2024/01/02 06:55:14;;;;;;;4.95;1.38;;;6.20;99.90;;;;;;5109819;28;20706;-79
2024/01/02 06:57:40;;;;;;;3.92;1.30;;;6.20;99.90;;;;;;5111456;28;20764;-80
2024/01/02 07:00:06;;;;;;;5.37;1.20;;;6.20;99.90;;;;;;5109067;28;20834;-80
2024/01/02 07:02:33;;;;;;;6.20;1.60;;;6.20;99.90;;;;;;5108857;28;20410;-80
2024/01/02 07:04:59;;;;;;;4.40;1.20;;;6.30;99.90;;;;;;5108530;28;20495;-80
2024/01/02 07:07:25;;;;;;;4.38;0.93;;;6.30;99.90;;;;;;5111086;28;20475;-80
2024/01/02 07:09:51;;;;;;;4.00;1.03;;;6.20;99.90;;;;;;5109551;28;20884;-80
2024/01/02 07:12:17;;;;;;;3.00;1.13;;;6.20;99.90;;;;;;5110701;28;20408;-80
2024/01/02 07:14:43;;;;;;;3.38;1.17;;;6.20;99.90;;;;;;5107589;28;20478;-80
2024/01/02 07:17:09;;;;;;;4.35;1.13;;;6.20;99.90;;;;;;5108171;28;20435;-80
2024/01/02 07:19:35;;;;;;;3.37;1.27;;;6.30;99.90;;;;;;5101321;28;20530;-80
2024/01/02 07:22:00;;;;;;;5.05;1.20;;;6.30;99.90;;;;;;5075133;28;20402;-79
2024/01/02 07:24:26;;;;;;;2.88;1.02;;;6.20;99.90;;;;;;5095719;28;20434;-80
2024/01/02 07:26:52;;;;;;;3.40;1.20;;;6.30;99.90;;;;;;5092288;28;20402;-80
2024/01/02 07:29:17;;;;;;;2.93;1.07;;;6.30;99.90;;;;;;5095407;28;20755;-80
2024/01/02 07:31:43;;;;;;;3.53;1.10;;;6.20;99.90;;;;;;5091422;28;20410;-79
2024/01/02 07:34:12;;;;;;;3.30;1.00;;;6.20;99.90;;;;;;5094472;28;20409;-80
2024/01/02 07:36:38;;;;;;;2.13;0.90;;;6.30;99.90;;;;;;5093148;28;20898;-80
2024/01/02 07:39:04;;;;;;;2.30;1.08;;;6.20;99.90;;;;;;5093230;28;20402;-80
2024/01/02 07:41:30;;;;;;;2.47;1.10;;;6.30;99.90;;;;;;5090841;28;20406;-80
2024/01/02 07:43:56;;;;;;;2.10;1.00;;;6.30;99.90;;;;;;5090775;28;20496;-79
2024/01/02 07:46:22;;;;;;;2.50;1.00;;;6.30;99.90;;;;;;5090052;28;20836;-80
2024/01/02 07:48:48;;;;;;;2.20;1.10;;;6.30;99.90;;;;;;5091629;28;20444;-79
2024/01/02 07:51:14;;;;;;;3.10;1.15;;;6.30;99.90;;;;;;5089530;28;20414;-79
2024/01/02 07:53:39;;;;;;;2.80;0.73;;;6.30;99.90;;;;;;5090739;28;20496;-80
2024/01/02 07:56:05;;;;;;;2.57;0.90;;;6.30;99.90;;;;;;5102032;28;20853;-79
2024/01/02 07:58:31;;;;;;;2.70;1.00;;;6.30;99.90;;;;;;5108627;28;20480;-79
2024/01/02 08:00:57;;;;;;;1.70;0.90;;;6.30;99.90;;;;;;5107822;28;20451;-80
2024/01/02 08:03:22;;;;;;;2.20;1.00;;;6.30;99.90;;;;;;5107061;28;20412;-79
2024/01/02 08:05:48;;;;;;;2.50;1.20;;;6.30;99.90;;;;;;5097475;28;20402;-79
2024/01/02 08:08:13;;;;;;;2.10;0.80;;;6.40;99.90;;;;;;5094703;28;20442;-79
2024/01/02 08:10:39;;;;;;;2.40;1.10;;;6.40;99.90;;;;;;5097218;28;20912;-79
2024/01/02 08:13:04;;;;;;;2.30;1.00;;;6.40;99.90;;;;;;5088753;28;20425;-79
2024/01/02 08:15:30;;;;;;;3.53;1.03;;;6.40;99.90;;;;;;5100224;28;20405;-80
2024/01/02 08:17:57;;;;;;;1.50;0.60;;;6.40;99.90;;;;;;5106448;28;20396;-79
2024/01/02 08:20:23;;;;;;;1.80;0.50;;;6.40;99.90;;;;;;5096015;28;20520;-79
2024/01/02 08:22:48;;;;;;;1.03;0.50;;;6.50;99.90;;;;;;5092456;28;20534;-80
2024/01/02 08:25:14;;;;;;;2.20;0.80;;;6.50;99.90;;;;;;5091211;28;20401;-80
2024/01/02 08:27:41;;;;;;;2.30;1.10;;;6.50;99.90;;;;;;5089031;28;20399;-80
2024/01/02 08:30:07;;;;;;;3.47;1.10;;;6.60;99.90;;;;;;5090538;28;20970;-79
2024/01/02 08:32:33;;;;;;;4.43;1.40;;;6.60;99.90;;;;;;5087975;28;20477;-79
2024/01/02 08:34:59;;;;;;;3.27;1.17;;;6.60;99.90;;;;;;5090839;28;20535;-79
2024/01/02 08:37:25;;;;;;;2.10;1.23;;;6.60;99.90;;;;;;5089186;28;20920;-79
2024/01/02 08:39:51;;;;;;;3.10;1.27;;;6.60;99.90;;;;;;5089193;28;20463;-80
2024/01/02 08:42:16;;;;;;;4.03;1.40;;;6.60;99.90;;;;;;5089180;28;20409;-80
2024/01/02 08:44:42;;;;;;;3.20;1.50;;;6.60;99.90;;;;;;5089065;28;20438;-80
2024/01/02 08:47:08;;;;;;;3.35;1.52;;;6.70;99.90;;;;;;5091241;28;21222;-80
2024/01/02 08:49:34;;;;;;;3.30;1.55;;;6.70;99.90;;;;;;5089102;28;20911;-80
2024/01/02 08:51:59;;;;;;;5.67;1.77;;;6.70;99.90;;;;;;5091488;28;20406;-79
2024/01/02 08:54:25;;;;;;;3.25;1.95;;;6.70;99.90;;;;;;5089082;28;20497;-80
2024/01/02 08:56:50;;;;;;;4.17;1.97;;;6.70;99.90;;;;;;5089340;28;20448;-79
2024/01/02 08:59:16;;;;;;;5.57;2.40;;;6.70;99.90;;;;;;5089879;28;20892;-80
2024/01/02 09:01:41;;;;;;;5.03;2.50;;;6.80;99.90;;;;;;5090505;28;20459;-80
2024/01/02 09:04:07;;;;;;;4.50;2.30;;;6.80;99.90;;;;;;5088014;28;20897;-80
2024/01/02 09:06:33;;;;;;;5.13;2.70;;;6.80;99.90;;;;;;5088696;28;20413;-80
2024/01/02 09:08:58;;;;;;;6.43;2.97;;;6.80;99.90;;;;;;5088187;28;20764;-80
2024/01/02 09:11:24;;;;;;;5.13;2.77;;;6.90;99.90;;;;;;5089940;28;20406;-79
2024/01/02 09:13:50;;;;;;;5.07;2.60;;;6.90;99.90;;;;;;5089268;28;20411;-79
2024/01/02 09:16:15;;;;;;;6.80;2.90;;;6.90;99.90;;;;;;5089909;28;20402;-79
2024/01/02 09:18:41;;;;;;;7.17;3.17;;;6.90;99.90;;;;;;5087718;28;20412;-80
2024/01/02 09:21:07;;;;;;;5.85;3.25;;;7.00;99.90;;;;;;5088787;28;20543;-80
2024/01/02 09:23:36;;;;;;;6.70;3.58;;;7.00;99.90;;;;;;5072684;28;20412;-80
2024/01/02 09:26:06;;;;;;;5.93;3.20;;;7.00;99.90;;;;;;5086572;28;20409;-79
2024/01/02 09:28:34;;;;;;;8.23;4.20;;;7.10;99.90;;;;;;5089607;28;20519;-79
2024/01/02 09:31:00;;;;;;;10.73;4.78;;;7.10;99.90;;;;;;5073514;28;20424;-80
2024/01/02 09:33:27;;;;;;;9.03;4.50;;;7.10;99.90;;;;;;5089888;28;20398;-79
2024/01/02 09:35:52;;;;;;;10.25;5.00;;;7.20;99.90;;;;;;5073715;28;20469;-80
2024/01/02 09:38:18;;;;;;;10.38;5.40;;;7.20;99.90;;;;;;5073310;28;20830;-79
2024/01/02 09:40:59;;;;;;;13.82;5.63;;;7.20;99.90;;;;;;5089132;27;20429;-80
2024/01/02 09:44:00;;;;;;;11.85;5.40;;;7.30;99.90;;;;;;5090637;28;20418;-79
2024/01/02 09:46:35;;;;;;;13.02;5.45;;;7.30;99.90;;;;;;5090088;28;21031;-80
2024/01/02 09:49:11;;;;;;;13.25;6.05;;;7.40;99.90;;;;;;5086739;28;20459;-79
2024/01/02 09:51:45;;;;;;;14.00;6.03;;;7.40;99.90;;;;;;5090692;28;20453;-79
2024/01/02 09:54:42;;;;;;;13.40;6.00;;;7.40;99.90;;;;;;5088686;28;20512;-79
2024/01/02 09:57:23;;;;;;;14.68;6.45;;;7.50;99.90;;;;;;5078019;28;20437;-80
2024/01/02 10:00:17;;;;;;;14.90;6.40;;;7.60;99.90;;;;;;5090296;28;20497;-79
2024/01/02 10:02:51;;;;;;;14.50;5.70;;;7.60;99.90;;;;;;5090240;28;20414;-80
2024/01/02 10:05:43;;;;;;;15.80;6.10;;;7.60;99.90;;;;;;5076265;28;20414;-80
2024/01/02 10:08:38;;;;;;;16.88;6.60;;;7.70;99.90;;;;;;5055889;28;20417;-80
2024/01/02 10:11:22;;;;;;;14.10;6.17;;;7.70;99.90;;;;;;5089994;28;20428;-80
2024/01/02 10:13:54;;;;;;;17.25;6.45;;;7.80;99.90;;;;;;5086452;28;20999;-80
2024/01/02 10:16:53;;;;;;;18.60;6.90;;;7.90;99.90;;;;;;5089760;28;20413;-80
2024/01/02 10:19:32;;;;;;;17.35;7.05;;;7.90;99.90;;;;;;5076160;28;20417;-80
2024/01/02 10:22:12;;;;;;;20.95;7.20;;;8.00;99.90;;;;;;5093412;28;20478;-79
2024/01/02 10:24:49;;;;;;;21.80;6.67;;;8.00;99.90;;;;;;5071219;28;20489;-79
2024/01/02 10:27:15;;;;;;;18.10;4.80;;;8.00;99.90;;;;;;5087751;28;20421;-79
2024/01/02 10:29:53;;;;;;;21.47;4.50;;;8.10;99.90;;;;;;5074384;28;20414;-79
2024/01/02 10:32:47;;;;;;;21.65;4.43;;;8.20;99.90;;;;;;5092219;28;20410;-80
2024/01/02 10:35:36;;;;;;;18.92;3.80;;;8.40;99.90;;;;;;5092361;28;20410;-80
2024/01/02 10:38:27;;;;;;;18.38;3.30;;;8.50;99.90;;;;;;5073400;28;20422;-79
2024/01/02 10:41:08;;;;;;;24.77;3.97;;;8.60;99.90;;;;;;5080167;28;20466;-79
2024/01/02 10:43:51;;;;;;;22.10;3.72;;;8.70;99.90;;;;;;5075744;28;20532;-79
2024/01/02 10:46:27;;;;;;;21.30;3.90;;;8.80;99.90;;;;;;5091315;28;20420;-79
2024/01/02 10:49:33;;;;;;;22.52;3.35;;;8.90;99.90;;;;;;5090960;28;20468;-79
2024/01/02 10:52:09;;;;;;;21.58;3.67;;;9.00;99.90;;;;;;5093010;28;20402;-79
2024/01/02 10:54:58;;;;;;;26.95;4.13;;;9.10;99.90;;;;;;5091750;28;20410;-79
2024/01/02 10:57:43;;;;;;;23.08;3.88;;;9.10;99.90;;;;;;5069944;28;20409;-79
2024/01/02 11:00:22;;;;;;;20.60;3.87;;;9.20;99.90;;;;;;5091682;28;20472;-79
2024/01/02 11:02:57;;;;;;;30.63;4.40;;;9.20;99.90;;;;;;5092360;28;20428;-79
2024/01/02 11:05:33;;;;;;;26.00;3.95;;;9.20;99.90;;;;;;5080885;28;20417;-79
2024/01/02 11:08:19;;;;;;;23.10;3.57;;;9.20;99.90;;;;;;5092613;28;20412;-78
2024/01/02 11:10:59;;;;;;;16.50;3.07;;;9.30;99.90;;;;;;5092001;28;20493;-79
2024/01/02 11:13:26;;;;;;;21.63;3.40;;;9.30;99.90;;;;;;5072691;28;20415;-79
2024/01/02 11:16:10;;;;;;;21.25;3.40;;;9.30;99.90;;;;;;5088242;28;20499;-79
2024/01/02 11:18:40;;;;;;;25.30;3.97;;;9.40;99.90;;;;;;5090238;28;20413;-79
2024/01/02 11:21:06;;;;;;;25.67;3.28;;;9.40;99.90;;;;;;5089071;28;20440;-79
2024/01/02 11:23:38;;;;;;;24.23;4.07;;;9.40;99.90;;;;;;5092963;28;20410;-79
2024/01/02 11:26:29;;;;;;;19.13;3.22;;;9.50;99.90;;;;;;5092607;28;20484;-79
2024/01/02 11:28:59;;;;;;;22.15;3.20;;;9.50;99.90;;;;;;5093988;28;20416;-79
2024/01/02 11:31:27;;;;;;;21.20;3.50;;;9.50;99.90;;;;;;5092518;28;20412;-80
2024/01/02 11:33:58;;;;;;;20.33;3.90;;;9.50;99.90;;;;;;5094853;28;20457;-79
2024/01/02 11:36:55;;;;;;;19.90;3.65;;;9.60;99.90;;;;;;5092367;28;20498;-79
2024/01/02 11:39:48;;;;;;;22.63;4.00;;;9.60;99.90;;;;;;5092272;28;20448;-79
2024/01/02 11:42:24;;;;;;;22.58;4.18;;;9.70;99.90;;;;;;5092180;28;20421;-79
2024/01/02 11:44:57;;;;;;;24.13;5.65;;;9.70;99.90;;;;;;5091434;28;20932;-79
2024/01/02 11:47:46;;;;;;;28.85;6.97;;;9.70;99.90;;;;;;5080091;28;20402;-79
2024/01/02 11:50:15;;;;;;;36.55;10.63;;;9.70;99.90;;;;;;5092728;28;20413;-79
2024/01/02 11:52:53;;;;;;;44.90;13.47;;;9.80;99.90;;;;;;5090657;28;20433;-79
2024/01/02 11:55:36;;;;;;;44.33;13.82;;;9.80;99.90;;;;;;5105391;28;20402;-79
2024/01/02 11:58:27;;;;;;;42.90;14.75;;;9.90;99.90;;;;;;5090446;28;20427;-79
2024/01/02 12:00:52;;;;;;;53.60;16.55;;;9.90;99.90;;;;;;5090685;28;20441;-79
2024/01/02 12:03:52;;;;;;;51.03;16.50;;;9.90;99.90;;;;;;5089625;28;20425;-79
2024/01/02 12:06:36;;;;;;;47.00;16.52;;;10.00;99.90;;;;;;5081347;28;20780;-79
2024/01/02 12:09:17;;;;;;;49.20;15.57;;;10.00;99.90;;;;;;5090364;28;20780;-79
2024/01/02 12:11:51;;;;;;;48.63;15.85;;;10.00;99.90;;;;;;5089790;28;20449;-79
2024/01/02 12:14:39;;;;;;;40.80;14.13;;;10.00;99.90;;;;;;5089303;28;20459;-79
2024/01/02 12:17:07;;;;;;;41.73;12.43;;;10.00;99.90;;;;;;5089575;28;20414;-80
2024/01/02 12:19:36;;;;;;;41.78;11.27;;;10.00;99.90;;;;;;5089936;28;20417;-80
2024/01/02 12:22:05;;;;;;;37.45;10.73;;;10.00;99.90;;;;;;5091682;28;20496;-79
2024/01/02 12:24:31;;;;;;;31.20;8.82;;;10.00;99.90;;;;;;5090610;28;20806;-79
2024/01/02 12:26:58;;;;;;;37.92;9.18;;;10.00;99.90;;;;;;5090569;28;20441;-79
2024/01/02 12:29:50;;;;;;;34.17;8.27;;;10.00;99.90;;;;;;5090812;28;20398;-79
2024/01/02 12:32:46;;;;;;;29.27;7.20;;;10.00;99.90;;;;;;5090635;28;20407;-79
2024/01/02 12:35:57;;;;;;;29.52;5.57;;;10.00;99.90;;;;;;5089503;28;20414;-79
2024/01/02 12:38:25;;;;;;;30.15;5.97;;;10.00;99.90;;;;;;5079271;28;20418;-80
2024/01/02 12:40:55;;;;;;;29.58;6.03;;;10.00;99.90;;;;;;5088777;28;20525;-79
2024/01/02 12:43:29;;;;;;;25.40;6.18;;;10.00;99.90;;;;;;5092099;28;20479;-79
2024/01/02 12:46:17;;;;;;;29.27;6.23;;;10.00;99.90;;;;;;5079514;28;20402;-79
2024/01/02 12:48:57;;;;;;;26.13;5.72;;;10.00;99.90;;;;;;5089931;28;20471;-79
2024/01/02 12:51:29;;;;;;;28.23;5.63;;;10.00;99.90;;;;;;5089795;28;20406;-79
2024/01/02 12:53:55;;;;;;;33.45;6.35;;;10.00;99.90;;;;;;5090335;28;20390;-79
2024/01/02 12:56:24;;;;;;;33.10;6.25;;;10.00;99.90;;;;;;5092204;28;20404;-79
2024/01/02 12:58:52;;;;;;;26.92;5.53;;;10.00;99.90;;;;;;5089316;28;20413;-79
2024/01/02 13:01:18;;;;;;;30.57;5.60;;;10.00;99.90;;;;;;5088891;28;20456;-79